Welcome, Guest. Please login or register.
Did you miss your activation email?
October 31, 2014, 10:43:44 PM
Home Help Login Register      
News: NEW Follow LiveATC updates on Twitter and Facebook


+  LiveATC Discussion Forums
|-+  Air Traffic Monitoring
| |-+  Listener Forum (Moderators: dave, RonR)
| | |-+  Another rough day at Boston...winds this time
« previous next »
Pages: [1] Go Down Print
Author Topic: Another rough day at Boston...winds this time  (Read 3937 times)
dave
Site Founder
Administrator
Hero Member
*****
Offline Offline

Posts: 3666



WWW
« on: January 14, 2005, 10:24:10 AM »

Windy, rainy day.  Lots of wind shear alerts.  Lots of go-arounds,
holds, diversions.  Cold front coming in.

KBOS 141446Z 23019G28KT 3SM RA BR OVC018 17/14 A2980 RMK AO2 PK WND
22035/1426 P0000

AIRMETs:

WAUS1 KBOS 141444
BOST WA 141445
AIRMET TANGO UPDT 3 FOR TURB AND LLWS VALID UNTIL 142100
AIRMET TURB...ME NH VT MA CT RI NY PA NJ VA MD DC DE AND CSTL
WTRS
FROM 70NW PQI TO 30NE PQI TO 60WSW YSJ TO 200SE ACK TO ECG TO HMV
TO HAR TO PLB TO YSC TO 70NW PQI
MOD TURB BLW 100 DUE TO STG LOW LVL WNDS. CONDS ENDG 00-03Z.

WAUS1 KBOS 141444
BOST WA 141445
AIRMET TANGO UPDT 3 FOR TURB AND LLWS VALID UNTIL 142100
AIRMET TURB...NH VT MA CT NY PA NJ OH WV VA MD DC DE LE LO
FROM YSC TO ENE TO JFK TO 30N RDU TO HMV TO HNN TO CVG TO FWA TO
DXO TO YYZ TO MSS TO YSC
OCNL MOD TURB BTN FL240 AND FL370 DUE TO SHR ASSOC WITH STG MID
AND UPR LVL TROF AND JTST. CONDS MOVG EWD..CONTG BYD 21Z THRU
03Z.
LLWS POTENTIAL OVR ME NH MA RI CT NJ DE SERN NY AND CSTL WTRS.
CONDS ENDG 21Z.


Boston Tower:
http://audio.liveatc.net:8012/bos_twr.m3u

Boston Approach:
http://audio.liveatc.net:8012/bos_app_dep.m3u
Logged
Biff
Sr. Member
****
Offline Offline

Posts: 373



WWW
« Reply #1 on: January 14, 2005, 01:06:25 PM »

23019G28KT

Wheeee!   That's starting to look like summer in FL.
Logged

united777lover
Newbie
*
Offline Offline

Posts: 48


« Reply #2 on: January 16, 2005, 10:36:32 AM »

DANG!!!! Those winds are crazy. Not to mention the rain and mist.

The worst I've ever done was a 14degree x/wind with winds at 22025G27. Lets just say I was nearly floating in mid air in my 172 lol!
Logged
Biff
Sr. Member
****
Offline Offline

Posts: 373



WWW
« Reply #3 on: January 16, 2005, 10:55:51 AM »

Your cold front has hit us:

KSFB 161453Z 35015G24KT 6SM -RA BR OVC008 10/09 A3020 RMK AO2 SLP226 P0003 60005 T01000089 53027

Not quite as windy, but keep in mind our main runways (3 of em) are all 9/27.   huh
Logged

Pages: [1] Go Up Print 
« previous next »
Jump to:  


Login with username, password and session length

Powered by MySQL Powered by PHP Powered by SMF 1.1.20 | SMF © 2011, Simple Machines Valid XHTML 1.0! Valid CSS!